Lawson Creek (157) Station Data

Red Flag Warning: No
Fire Weather Zone: 250
SDGE Region: Eastern
Lat/Lon: 32.743/-116.732

Observations

Time Wind Speed/Gust Temp(F) RH Fuel Moist Fuel Temp(F) Dewpt(F) Tmax(F) Tmin(F) Accum Precip 10-min Precip SL Press(mb)
4/26 2:40am 83 3 G 3 49° 78% - - 42° 52.9° 47.6° - - -
4/26 2:30am 84 3 G 4 49° 77% - - 42° 52.9° 47.6° - - -
4/26 2:20am 80 3 G 4 49° 77% - - 42° 52.9° 48.5° - - -
4/26 2:10am 99 2 G 4 49° 76% - - 42° 52.9° 48.5° - - -
4/26 2:00am 86 2 G 4 50° 74% - - 42° 52.9° 48.7° - - -
4/26 1:50am 84 3 G 5 50° 76% - - 43° 52.9° 48.7° - - -
4/26 1:40am 88 3 G 4 50° 77% - - 43° 52.9° 48.7° - - -
4/26 1:30am 93 3 G 4 51° 77% - - 44° 52.9° 49.2° - - -
4/26 1:20am 80 3 G 5 50° 78% - - 44° 52.9° 49.2° - - -
4/26 1:10am 116 3 G 6 51° 77% - - 44° 52.9° 49.2° - - -
4/26 1:00am 83 4 G 6 51° 80% - - 44° 52.9° 49.2° - - -
4/26 12:50am 100 1 G 2 51° 79% - - 45° 52.9° 49.2° - - -
4/26 12:40am 111 2 G 4 51° 83% - - 45° 52.9° 49.2° - - -
4/26 12:30am 68 2 G 3 50° 82% - - 45° 52.9° 49.2° - - -
4/26 12:20am 77 2 G 3 52° 82% - - 46° 52.9° 49.2° - - -
4/26 12:10am 89 2 G 4 50° 84% - - 46° 51.6° 49.2° - - -
4/26 12:00am 94 3 G 4 49° 86% - - 45° 64° 47° - - -
4/25 11:50pm 89 2 G 3 50° 86% - - 45° 64° 47° - - -
4/25 11:40pm 85 2 G 4 50° 85% - - 45° 64° 47° - - -
4/25 11:30pm 88 3 G 4 49° 87% - - 45° 64° 47° - - -
4/25 11:20pm 87 2 G 4 49° 86% - - 45° 64° 47° - - -
4/25 11:10pm 84 3 G 5 49° 85% - - 44° 64° 47° - - -
4/25 10:50pm 84 2 G 4 49° 84% - - 44° 64° 47° - - -
4/25 10:40pm 88 2 G 3 48° 85% - - 44° 64° 47° - - -
4/25 10:30pm 89 2 G 4 48° 84% - - 43° 64° 47° - - -
4/25 10:20pm 84 2 G 4 48° 83% - - 43° 64° 47.5° - - -
4/25 10:10pm 83 3 G 4 48° 82% - - 43° 64° 47.9° - - -
4/25 10:00pm 96 3 G 3 49° 82% - - 44° 64° 48.1° - - -
4/25 9:50pm 98 2 G 3 49° 82% - - 44° 64° 48.1° - - -
4/25 9:40pm 99 1 G 2 49° 83% - - 44° 64° 48.1° - - -
4/25 9:30pm 104 2 G 3 49° 82% - - 44° 64° 48.2° - - -
4/25 9:20pm 85 2 G 3 49° 82% - - 44° 64° 48.2° - - -
4/25 9:10pm 91 2 G 3 49° 81% - - 44° 64° 48.2° - - -
4/25 9:00pm 87 1 G 3 49° 82% - - 44° 64° 48.2° - - -
4/25 8:50pm 88 2 G 3 49° 82% - - 43° 64° 48.2° - - -
4/25 8:40pm 90 2 G 3 49° 80% - - 43° 64° 48.3° - - -
4/25 8:30pm 88 2 G 3 50° 79% - - 44° 64° 49.5° - - -
4/25 8:20pm 104 1 G 2 51° 78% - - 44° 64° 50.4° - - -
4/25 8:10pm 102 1 G 2 52° 76% - - 44° 64° 50.7° - - -
4/25 8:00pm 89 3 G 4 53° 73% - - 45° 64° 50.7° - - -
4/25 7:50pm 52 1 G 2 54° 73% - - 45° 64° 50.7° - - -
4/25 7:40pm 47 1 G 2 54° 72% - - 45° 64° 50.7° - - -
4/25 7:30pm 55 1 G 2 55° 71% - - 46° 64° 50.7° - - -
4/25 7:20pm 11 1 G 5 56° 70% - - 46° 64° 50.7° - - -
4/25 7:10pm 321 1 G 5 56° 69% - - 46° 64° 50.7° - - -
4/25 7:00pm 299 3 G 9 56° 69% - - 46° 64° 50.7° - - -
4/25 6:50pm 279 5 G 10 56° 70% - - 47° 64° 50.7° - - -
4/25 6:40pm 273 6 G 10 57° 71% - - 47° 64° 50.7° - - -
4/25 6:30pm 275 5 G 10 57° 72% - - 48° 64° 50.7° - - -
4/25 6:20pm 278 5 G 9 57° 73% - - 48° 64° 50.7° - - -
4/25 6:10pm 300 4 G 9 57° 73% - - 49° 64° 50.7° - - -
4/25 6:00pm 291 5 G 10 58° 73% - - 49° 64° 50.7° - - -
4/25 5:50pm 277 7 G 13 57° 75% - - 49° 64° 50.7° - - -
4/25 5:40pm 279 8 G 14 57° 75% - - 50° 64° 50.7° - - -
4/25 5:30pm 277 8 G 12 58° 74% - - 50° 64° 50.7° - - -
4/25 5:20pm 282 7 G 13 58° 73% - - 50° 64° 50.7° - - -
4/25 5:10pm 275 7 G 12 59° 71% - - 49° 64° 50.7° - - -
4/25 5:00pm 270 9 G 13 59° 68% - - 49° 64° 50.7° - - -
4/25 4:50pm 272 7 G 12 60° 67% - - 49° 64° 50.7° - - -
4/25 4:40pm 288 5 G 9 60° 66% - - 48° 64° 50.7° - - -
4/25 4:30pm 298 4 G 10 60° 65% - - 48° 64° 50.7° - - -
4/25 4:20pm 288 5 G 10 61° 64% - - 49° 64° 50.7° - - -
4/25 4:10pm 286 5 G 11 60° 65% - - 49° 64° 50.7° - - -
4/25 4:00pm 293 5 G 11 60° 65% - - 49° 64° 50.7° - - -
4/25 3:50pm 298 5 G 12 61° 66% - - 49° 64° 50.7° - - -
4/25 3:40pm 294 5 G 10 60° 67% - - 49° 64° 50.7° - - -
4/25 3:30pm 294 5 G 9 60° 66% - - 49° 64° 50.7° - - -
4/25 3:20pm 275 7 G 12 60° 67% - - 49° 64° 50.7° - - -
4/25 3:10pm 265 8 G 13 60° 67% - - 49° 64° 50.7° - - -
4/25 3:00pm 275 7 G 11 61° 64% - - 49° 64° 50.7° - - -
4/25 2:50pm 302 4 G 9 62° 61% - - 48° 64° 50.7° - - -
4/25 2:40pm 313 5 G 13 62° 60% - - 48° 64° 50.7° - - -
4/25 2:30pm 291 4 G 8 62° 60% - - 48° 64° 50.7° - - -
4/25 2:20pm 298 6 G 11 62° 60% - - 48° 64° 50.7° - - -
4/25 2:10pm 315 5 G 10 62° 61% - - 48° 64° 50.7° - - -
4/25 2:00pm 304 5 G 10 63° 59% - - 48° 64° 50.7° - - -
4/25 1:50pm 283 7 G 14 62° 61% - - 48° 63.9° 50.7° - - -
4/25 1:40pm 298 5 G 12 62° 59% - - 48° 63.9° 50.7° - - -
4/25 1:30pm 288 5 G 11 62° 59% - - 48° 63.9° 50.7° - - -
4/25 1:20pm 286 6 G 13 61° 61% - - 48° 63.9° 50.7° - - -
4/25 1:10pm 303 5 G 12 62° 59% - - 48° 63.9° 50.7° - - -
4/25 1:00pm 307 5 G 12 63° 57% - - 48° 63.9° 50.7° - - -
4/25 12:50pm 294 5 G 12 63° 56% - - 47° 63.6° 50.7° - - -
4/25 12:40pm 302 6 G 11 62° 55% - - 46° 63.6° 50.7° - - -
4/25 12:30pm 313 5 G 14 62° 56% - - 46° 63.2° 50.7° - - -
4/25 12:20pm 293 6 G 15 62° 56% - - 46° 63.2° 50.7° - - -
4/25 12:10pm 290 5 G 10 62° 55% - - 46° 62.8° 50.7° - - -
4/25 12:00pm 309 5 G 11 61° 55% - - 45° 62.8° 50.7° - - -
4/25 11:50am 291 6 G 13 62° 55% - - 45° 62.8° 50.7° - - -
4/25 11:40am 305 4 G 11 61° 57% - - 46° 62.8° 50.7° - - -
4/25 11:30am 288 6 G 12 60° 58% - - 46° 62.2° 50.7° - - -
4/25 11:20am 288 6 G 12 60° 59% - - 46° 62.2° 50.7° - - -
4/25 11:10am 304 4 G 10 61° 61% - - 47° 62.2° 50.7° - - -
4/25 11:00am 280 8 G 13 59° 65% - - 47° 61.6° 50.7° - - -
4/25 10:50am 298 5 G 12 61° 59% - - 46° 61.6° 50.7° - - -
4/25 10:40am 307 5 G 10 60° 65% - - 48° 61.1° 50.7° - - -
4/25 10:30am 298 6 G 11 58° 68% - - 48° 59.3° 50.7° - - -
4/25 10:20am 353 4 G 7 58° 67% - - 47° 59.3° 50.7° - - -
4/25 10:10am 293 5 G 10 58° 67% - - 48° 59.3° 50.7° - - -
4/25 10:00am 293 4 G 8 57° 72% - - 48° 58.7° 50.7° - - -
4/25 9:50am 283 6 G 12 57° 70% - - 47° 57.8° 50.7° - - -
4/25 9:40am 288 4 G 9 57° 70% - - 47° 57.8° 50.7° - - -
4/25 9:30am 226 3 G 9 56° 73% - - 48° 57.5° 50.7° - - -
4/25 9:20am 249 4 G 8 55° 76% - - 48° 56.7° 50.7° - - -
4/25 9:10am 238 3 G 6 56° 75% - - 48° 56.7° 50.7° - - -
4/25 9:00am 257 5 G 8 55° 76% - - 48° 56.7° 50.7° - - -
4/25 8:50am 254 6 G 9 55° 75% - - 47° 56.7° 50.7° - - -
4/25 8:40am 173 2 G 9 56° 73% - - 47° 56.7° 50.7° - - -
4/25 8:30am 298 2 G 4 54° 77% - - 47° 55.9° 50.7° - - -
4/25 8:20am 280 4 G 7 55° 76% - - 47° 55.9° 50.7° - - -
4/25 8:10am 43 1 G 3 55° 76% - - 48° 55.9° 50.7° - - -
4/25 8:00am 80 1 G 2 55° 78% - - 48° 55.8° 50.7° - - -
4/25 7:50am 70 1 G 3 53° 83% - - 48° 54.4° 50.7° - - -
4/25 7:40am 40 2 G 3 53° 86% - - 49° 53.2° 50.7° - - -
4/25 7:30am 3 1 G 3 52° 87% - - 49° 53.2° 50.7° - - -
4/25 7:20am 73 0 G 4 52° 89% - - 49° 53.2° 50.7° - - -
4/25 7:10am 27 2 G 4 51° 89% - - 48° 53.2° 50.7° - - -
4/25 7:00am 34 2 G 4 51° 89% - - 48° 53.2° 50.7° - - -
4/25 6:50am 67 3 G 6 51° 87% - - 48° 53.2° 50.7° - - -
4/25 6:40am 355 2 G 3 52° 86% - - 48° 53.2° 50.7° - - -
4/25 6:30am 238 3 G 7 52° 84% - - 48° 53.2° 50.7° - - -
4/25 6:20am 172 3 G 7 52° 86% - - 48° 53.2° 50.7° - - -
4/25 6:10am 165 3 G 7 52° 87% - - 48° 53.2° 50.7° - - -
4/25 6:00am 161 4 G 8 52° 87% - - 48° 53.2° 50.7° - - -
4/25 5:50am 171 3 G 6 52° 87% - - 48° 53.2° 50.7° - - -
4/25 5:40am 160 4 G 7 52° 87% - - 48° 53.2° 50.7° - - -
4/25 5:30am 163 4 G 7 52° 87% - - 48° 53.2° 50.7° - - -
4/25 5:20am 148 4 G 7 52° 87% - - 48° 53.2° 50.7° - - -
4/25 5:10am 171 3 G 8 52° 86% - - 48° 53.2° 50.7° - - -
4/25 5:00am 173 2 G 7 52° 87% - - 48° 53.2° 50.7° - - -
4/25 4:50am 163 2 G 4 51° 88% - - 48° 53.2° 50.7° - - -
4/25 4:40am 155 2 G 5 51° 88% - - 48° 53.2° 50.7° - - -
4/25 4:30am 160 2 G 5 51° 88% - - 48° 53.2° 50.7° - - -
4/25 4:20am 153 2 G 6 51° 87% - - 48° 53.2° 50.9° - - -
4/25 4:10am 189 2 G 5 52° 86% - - 48° 53.2° 51° - - -
4/25 4:00am 190 3 G 9 52° 86% - - 48° 53.2° 51° - - -
4/25 3:50am 184 3 G 6 52° 88% - - 48° 53.2° 51° - - -
4/25 3:40am 211 4 G 8 52° 90% - - 49° 53.2° 51° - - -
4/25 3:30am 180 4 G 10 51° 92% - - 49° 53.2° 51° - - -
4/25 3:20am 182 4 G 7 52° 92% - - 49° 53.2° 51° - - -
4/25 3:10am 172 4 G 7 52° 92% - - 49° 53.2° 51° - - -
4/25 3:00am 186 3 G 7 52° 91% - - 49° 53.2° 51° - - -
4/25 2:50am 172 3 G 6 52° 90% - - 49° 53.2° 51° - - -
4/25 2:40am 204 4 G 9 52° 89% - - 49° 53.2° 51° - - -
4/25 2:30am 225 6 G 12 52° 86% - - 48° 53.2° 51° - - -
4/25 2:20am 201 3 G 6 53° 84% - - 48° 53.2° 51° - - -
4/25 2:10am 161 3 G 5 53° 83% - - 48° 53.2° 51° - - -
4/25 2:00am 187 3 G 6 53° 84% - - 48° 53.2° 51° - - -
4/25 1:50am 203 4 G 8 52° 85% - - 48° 53° 51° - - -
4/25 1:40am 185 4 G 7 52° 86% - - 48° 53° 51° - - -
4/25 1:30am 177 4 G 8 52° 86% - - 48° 53° 51° - - -
4/25 1:20am 178 3 G 8 52° 87% - - 48° 52.8° 51° - - -
4/25 1:10am 202 2 G 5 52° 85% - - 48° 52.8° 51° - - -
4/25 1:00am 188 3 G 7 52° 86% - - 48° 52.5° 51° - - -
4/25 12:50am 189 4 G 7 52° 85% - - 48° 52.5° 51° - - -
4/25 12:40am 133 3 G 7 52° 85% - - 48° 52.5° 51° - - -
4/25 12:30am 171 2 G 7 52° 86% - - 48° 52.4° 51° - - -
4/25 12:20am 168 3 G 6 52° 88% - - 48° 52.4° 51° - - -
4/25 12:10am 235 5 G 8 51° 90% - - 49° 52° 51° - - -
4/25 12:00am 233 6 G 9 52° 88% - - 48° 67.1° 41.2° - - -
4/24 11:50pm 246 3 G 6 52° 88% - - 48° 67.1° 41.2° - - -
4/24 11:40pm 253 4 G 6 52° 89% - - 48° 67.1° 41.2° - - -
4/24 11:30pm 265 5 G 9 51° 90% - - 49° 67.1° 41.2° - - -
4/24 11:20pm 254 6 G 10 51° 91% - - 49° 67.1° 41.2° - - -
4/24 11:10pm 285 2 G 5 50° 91% - - 48° 67.1° 41.2° - - -
4/24 11:00pm 91 2 G 3 49° 91% - - 47° 67.1° 41.2° - - -
4/24 10:50pm 52 1 G 2 49° 91% - - 47° 67.1° 41.2° - - -
4/24 10:40pm 87 2 G 3 48° 91% - - 46° 67.1° 41.2° - - -
4/24 10:30pm 118 1 G 2 49° 91% - - 46° 67.1° 41.2° - - -
4/24 10:20pm 118 1 G 2 49° 90% - - 46° 67.1° 41.2° - - -
4/24 10:10pm 67 2 G 3 49° 89% - - 46° 67.1° 41.2° - - -
4/24 10:00pm 83 2 G 3 50° 89% - - 47° 67.1° 41.2° - - -
4/24 9:50pm 96 2 G 3 51° 87% - - 48° 67.1° 41.2° - - -
4/24 9:40pm 6 1 G 2 52° 86% - - 48° 67.1° 41.2° - - -
4/24 9:30pm 299 1 G 3 53° 86% - - 48° 67.1° 41.2° - - -
4/24 9:20pm 226 2 G 5 53° 87% - - 49° 67.1° 41.2° - - -
4/24 9:10pm 258 1 G 3 53° 90% - - 50° 67.1° 41.2° - - -
4/24 9:00pm 295 2 G 3 53° 90% - - 50° 67.1° 41.2° - - -
4/24 8:50pm 280 2 G 4 53° 90% - - 50° 67.1° 41.2° - - -
4/24 8:40pm 269 2 G 4 53° 89% - - 50° 67.1° 41.2° - - -
4/24 8:30pm 283 2 G 4 54° 88% - - 50° 67.1° 41.2° - - -
4/24 8:20pm 263 3 G 4 54° 89% - - 51° 67.1° 41.2° - - -
4/24 8:10pm 266 0 G 3 54° 89% - - 51° 67.1° 41.2° - - -
4/24 8:00pm 13 1 G 3 54° 89% - - 51° 67.1° 41.2° - - -
4/24 7:50pm 19 1 G 2 54° 88% - - 51° 67.1° 41.2° - - -
4/24 7:40pm 25 1 G 3 55° 87% - - 51° 67.1° 41.2° - - -
4/24 7:30pm 323 1 G 4 55° 86% - - 51° 67.1° 41.2° - - -
4/24 7:20pm 305 1 G 4 55° 85% - - 51° 67.1° 41.2° - - -
4/24 7:10pm 320 1 G 4 56° 84% - - 51° 67.1° 41.2° - - -
4/24 7:00pm 295 2 G 5 57° 81% - - 51° 67.1° 41.2° - - -
4/24 6:50pm 292 2 G 6 58° 78% - - 51° 67.1° 41.2° - - -
4/24 6:40pm 279 4 G 7 58° 76% - - 50° 67.1° 41.2° - - -
4/24 6:30pm 256 5 G 8 58° 76% - - 50° 67.1° 41.2° - - -
4/24 6:20pm 246 5 G 9 58° 76% - - 50° 67.1° 41.2° - - -
4/24 6:10pm 243 7 G 10 58° 74% - - 50° 67.1° 41.2° - - -
4/24 6:00pm 259 6 G 10 58° 75% - - 50° 67.1° 41.2° - - -